sensor_id;sensor_type;location;lat;lon;timestamp;pressure;altitude;pressure_sealevel;temperature;humidity
71239;BME280;61342;51.442;7.370;2022-07-04T00:00:11;100420.06;;;19.46;53.73
71239;BME280;61342;51.442;7.370;2022-07-04T00:01:12;100416.16;;;19.44;54.01
71239;BME280;61342;51.442;7.370;2022-07-04T00:02:12;100416.00;;;19.42;53.53
71239;BME280;61342;51.442;7.370;2022-07-04T00:03:13;100420.09;;;19.39;54.00
71239;BME280;61342;51.442;7.370;2022-07-04T00:04:13;100424.16;;;19.36;53.92
71239;BME280;61342;51.442;7.370;2022-07-04T00:05:14;100422.44;;;19.33;53.74
71239;BME280;61342;51.442;7.370;2022-07-04T00:06:15;100419.91;;;19.29;53.97
71239;BME280;61342;51.442;7.370;2022-07-04T00:07:15;100419.53;;;19.25;54.23
71239;BME280;61342;51.442;7.370;2022-07-04T00:08:16;100418.97;;;19.19;54.52
71239;BME280;61342;51.442;7.370;2022-07-04T00:09:16;100420.53;;;19.13;54.73
71239;BME280;61342;51.442;7.370;2022-07-04T00:10:19;100427.53;;;19.10;54.53
71239;BME280;61342;51.442;7.370;2022-07-04T00:11:23;100423.44;;;19.06;54.38
71239;BME280;61342;51.442;7.370;2022-07-04T00:12:23;100421.88;;;19.05;54.41
71239;BME280;61342;51.442;7.370;2022-07-04T00:13:23;100418.56;;;19.01;54.22
71239;BME280;61342;51.442;7.370;2022-07-04T00:14:24;100422.28;;;19.01;54.97
71239;BME280;61342;51.442;7.370;2022-07-04T00:15:24;100421.09;;;19.04;54.50
71239;BME280;61342;51.442;7.370;2022-07-04T00:16:25;100424.25;;;19.06;54.60
71239;BME280;61342;51.442;7.370;2022-07-04T00:17:25;100425.00;;;19.07;54.49
71239;BME280;61342;51.442;7.370;2022-07-04T00:18:25;100423.81;;;19.09;54.66
71239;BME280;61342;51.442;7.370;2022-07-04T00:19:26;100414.13;;;19.07;54.56
71239;BME280;61342;51.442;7.370;2022-07-04T00:20:26;100420.91;;;19.09;54.98
71239;BME280;61342;51.442;7.370;2022-07-04T00:21:27;100420.91;;;19.09;55.08
71239;BME280;61342;51.442;7.370;2022-07-04T00:22:27;100420.75;;;19.08;54.88
71239;BME280;61342;51.442;7.370;2022-07-04T00:23:28;100419.78;;;19.05;55.33
71239;BME280;61342;51.442;7.370;2022-07-04T00:24:28;100421.09;;;19.04;54.63
71239;BME280;61342;51.442;7.370;2022-07-04T00:25:29;100417.63;;;18.98;55.02
71239;BME280;61342;51.442;7.370;2022-07-04T00:26:29;100419.56;;;18.96;54.75
71239;BME280;61342;51.442;7.370;2022-07-04T00:27:29;100412.75;;;18.93;55.51
71239;BME280;61342;51.442;7.370;2022-07-04T00:28:30;100414.50;;;18.89;54.77
71239;BME280;61342;51.442;7.370;2022-07-04T00:29:30;100412.00;;;18.85;55.18
71239;BME280;61342;51.442;7.370;2022-07-04T00:30:31;100417.44;;;18.81;55.19
71239;BME280;61342;51.442;7.370;2022-07-04T00:31:31;100410.41;;;18.77;55.50
71239;BME280;61342;51.442;7.370;2022-07-04T00:32:31;100402.69;;;18.72;55.58
71239;BME280;61342;51.442;7.370;2022-07-04T00:33:32;100411.78;;;18.68;56.01
71239;BME280;61342;51.442;7.370;2022-07-04T00:34:32;100419.56;;;18.66;55.71
71239;BME280;61342;51.442;7.370;2022-07-04T00:35:33;100412.38;;;18.59;56.04
71239;BME280;61342;51.442;7.370;2022-07-04T00:36:34;100414.31;;;18.57;55.96
71239;BME280;61342;51.442;7.370;2022-07-04T00:37:34;100409.06;;;18.55;55.77
71239;BME280;61342;51.442;7.370;2022-07-04T00:38:35;100412.75;;;18.56;56.52
71239;BME280;61342;51.442;7.370;2022-07-04T00:39:35;100408.47;;;18.57;56.16
71239;BME280;61342;51.442;7.370;2022-07-04T00:40:37;100411.03;;;18.60;56.52
71239;BME280;61342;51.442;7.370;2022-07-04T00:41:37;100401.69;;;18.62;56.34
71239;BME280;61342;51.442;7.370;2022-07-04T00:42:38;100395.09;;;18.61;56.46
71239;BME280;61342;51.442;7.370;2022-07-04T00:43:38;100402.84;;;18.66;56.31
71239;BME280;61342;51.442;7.370;2022-07-04T00:44:38;100402.84;;;18.66;56.36
71239;BME280;61342;51.442;7.370;2022-07-04T00:45:39;100405.97;;;18.68;56.13
71239;BME280;61342;51.442;7.370;2022-07-04T00:46:41;100406.75;;;18.69;56.27
71239;BME280;61342;51.442;7.370;2022-07-04T00:47:41;100402.84;;;18.66;56.01
71239;BME280;61342;51.442;7.370;2022-07-04T00:48:42;100400.53;;;18.65;56.40
71239;BME280;61342;51.442;7.370;2022-07-04T00:49:42;100408.28;;;18.62;56.18
71239;BME280;61342;51.442;7.370;2022-07-04T00:50:47;100403.63;;;18.59;56.73
71239;BME280;61342;51.442;7.370;2022-07-04T00:51:47;100407.50;;;18.54;56.74
71239;BME280;61342;51.442;7.370;2022-07-04T00:52:48;100403.63;;;18.52;56.28
71239;BME280;61342;51.442;7.370;2022-07-04T00:53:50;100406.94;;;18.49;56.88
71239;BME280;61342;51.442;7.370;2022-07-04T00:54:51;100408.88;;;18.46;56.74
71239;BME280;61342;51.442;7.370;2022-07-04T00:55:52;100403.44;;;18.43;56.92
71239;BME280;61342;51.442;7.370;2022-07-04T00:56:54;100405.94;;;18.39;57.06
71239;BME280;61342;51.442;7.370;2022-07-04T00:57:55;100410.63;;;18.34;57.41
71239;BME280;61342;51.442;7.370;2022-07-04T00:58:55;100408.88;;;18.31;57.04
71239;BME280;61342;51.442;7.370;2022-07-04T00:59:56;100407.31;;;18.30;57.27
71239;BME280;61342;51.442;7.370;2022-07-04T01:00:56;100407.88;;;18.29;57.38
71239;BME280;61342;51.442;7.370;2022-07-04T01:01:56;100410.97;;;18.31;57.53
71239;BME280;61342;51.442;7.370;2022-07-04T01:02:57;100409.06;;;18.33;57.38
71239;BME280;61342;51.442;7.370;2022-07-04T01:03:57;100417.41;;;18.37;57.20
71239;BME280;61342;51.442;7.370;2022-07-04T01:04:58;100413.53;;;18.42;57.39
71239;BME280;61342;51.442;7.370;2022-07-04T01:05:59;100412.75;;;18.41;57.33
71239;BME280;61342;51.442;7.370;2022-07-04T01:07:00;100417.41;;;18.44;57.13
71239;BME280;61342;51.442;7.370;2022-07-04T01:08:01;100404.41;;;18.45;57.66
71239;BME280;61342;51.442;7.370;2022-07-04T01:09:02;100416.06;;;18.45;57.54
71239;BME280;61342;51.442;7.370;2022-07-04T01:10:03;100407.91;;;18.44;57.56
71239;BME280;61342;51.442;7.370;2022-07-04T01:11:03;100417.22;;;18.42;57.83
71239;BME280;61342;51.442;7.370;2022-07-04T01:12:04;100411.00;;;18.38;57.65
71239;BME280;61342;51.442;7.370;2022-07-04T01:13:05;100411.38;;;18.35;57.91
71239;BME280;61342;51.442;7.370;2022-07-04T01:14:05;100409.06;;;18.33;57.42
71239;BME280;61342;51.442;7.370;2022-07-04T01:15:07;100414.47;;;18.29;58.09
71239;BME280;61342;51.442;7.370;2022-07-04T01:16:09;100409.03;;;18.26;58.24
71239;BME280;61342;51.442;7.370;2022-07-04T01:17:09;100401.88;;;18.19;57.88
71239;BME280;61342;51.442;7.370;2022-07-04T01:18:09;100409.63;;;18.17;58.37
71239;BME280;61342;51.442;7.370;2022-07-04T01:19:10;100403.94;;;18.11;58.13
71239;BME280;61342;51.442;7.370;2022-07-04T01:20:13;100407.41;;;18.10;58.65
71239;BME280;61342;51.442;7.370;2022-07-04T01:21:14;100404.31;;;18.08;58.40
71239;BME280;61342;51.442;7.370;2022-07-04T01:22:15;100403.13;;;18.03;58.44
71239;BME280;61342;51.442;7.370;2022-07-04T01:23:15;100394.81;;;18.00;58.89
71239;BME280;61342;51.442;7.370;2022-07-04T01:24:16;100397.31;;;17.96;58.70
71239;BME280;61342;51.442;7.370;2022-07-04T01:25:16;100398.84;;;17.97;58.80
71239;BME280;61342;51.442;7.370;2022-07-04T01:26:17;100401.00;;;17.96;59.04
71239;BME280;61342;51.442;7.370;2022-07-04T01:27:18;100402.72;;;17.99;58.73
71239;BME280;61342;51.442;7.370;2022-07-04T01:28:20;100402.38;;;18.03;59.22
71239;BME280;61342;51.442;7.370;2022-07-04T01:29:20;100403.94;;;18.04;58.82
71239;BME280;61342;51.442;7.370;2022-07-04T01:30:21;100402.00;;;18.06;58.75
71239;BME280;61342;51.442;7.370;2022-07-04T01:31:22;100405.88;;;18.09;58.99
71239;BME280;61342;51.442;7.370;2022-07-04T01:32:22;100404.72;;;18.12;58.90
71239;BME280;61342;51.442;7.370;2022-07-04T01:33:22;100402.56;;;18.12;59.12
71239;BME280;61342;51.442;7.370;2022-07-04T01:34:23;100401.59;;;18.10;59.06
71239;BME280;61342;51.442;7.370;2022-07-04T01:35:23;100392.88;;;18.10;59.11
71239;BME280;61342;51.442;7.370;2022-07-04T01:36:24;100406.06;;;18.11;59.25
71239;BME280;61342;51.442;7.370;2022-07-04T01:37:24;100396.34;;;18.08;59.40
71239;BME280;61342;51.442;7.370;2022-07-04T01:38:25;100404.09;;;18.06;59.41
71239;BME280;61342;51.442;7.370;2022-07-04T01:39:28;100392.06;;;18.02;59.30
71239;BME280;61342;51.442;7.370;2022-07-04T01:40:29;100394.59;;;17.98;59.34
71239;BME280;61342;51.442;7.370;2022-07-04T01:41:33;100402.16;;;17.93;59.33
71239;BME280;61342;51.442;7.370;2022-07-04T01:42:34;100395.34;;;17.91;59.66
71239;BME280;61342;51.442;7.370;2022-07-04T01:43:34;100409.69;;;17.89;60.17
71239;BME280;61342;51.442;7.370;2022-07-04T01:44:35;100400.00;;;17.87;60.34
71239;BME280;61342;51.442;7.370;2022-07-04T01:45:36;100392.22;;;17.82;60.17
71239;BME280;61342;51.442;7.370;2022-07-04T01:46:39;100401.53;;;17.80;60.25
71239;BME280;61342;51.442;7.370;2022-07-04T01:47:40;100398.03;;;17.82;60.64
71239;BME280;61342;51.442;7.370;2022-07-04T01:48:40;100390.09;;;17.82;60.56
71239;BME280;61342;51.442;7.370;2022-07-04T01:49:41;100399.59;;;17.83;60.41
71239;BME280;61342;51.442;7.370;2022-07-04T01:50:41;100395.53;;;17.86;60.32
71239;BME280;61342;51.442;7.370;2022-07-04T01:51:46;100402.34;;;17.88;60.26
71239;BME280;61342;51.442;7.370;2022-07-04T01:52:46;100390.69;;;17.88;60.60
71239;BME280;61342;51.442;7.370;2022-07-04T01:53:47;100399.25;;;17.93;60.12
71239;BME280;61342;51.442;7.370;2022-07-04T01:54:47;100395.75;;;17.95;60.22
71239;BME280;61342;51.442;7.370;2022-07-04T01:55:47;100394.19;;;17.94;60.59
71239;BME280;61342;51.442;7.370;2022-07-04T01:56:48;100398.06;;;17.96;60.32
71239;BME280;61342;51.442;7.370;2022-07-04T01:57:48;100408.94;;;17.96;60.25
71239;BME280;61342;51.442;7.370;2022-07-04T01:58:49;100404.66;;;17.97;60.38
71239;BME280;61342;51.442;7.370;2022-07-04T01:59:49;100400.00;;;17.94;60.09
71239;BME280;61342;51.442;7.370;2022-07-04T02:01:08;100407.00;;;17.91;60.02
71239;BME280;61342;51.442;7.370;2022-07-04T02:02:27;100411.06;;;17.88;60.02
71239;BME280;61342;51.442;7.370;2022-07-04T02:03:27;100407.16;;;17.86;60.17
71239;BME280;61342;51.442;7.370;2022-07-04T02:04:28;100411.03;;;17.81;60.57
71239;BME280;61342;51.442;7.370;2022-07-04T02:05:28;100413.75;;;17.79;60.75
71239;BME280;61342;51.442;7.370;2022-07-04T02:06:29;100408.47;;;17.77;60.51
71239;BME280;61342;51.442;7.370;2022-07-04T02:07:30;100407.50;;;17.75;60.64
71239;BME280;61342;51.442;7.370;2022-07-04T02:08:30;100410.22;;;17.73;60.60
71239;BME280;61342;51.442;7.370;2022-07-04T02:09:51;100419.31;;;17.69;60.71
71239;BME280;61342;51.442;7.370;2022-07-04T02:10:52;100424.94;;;17.67;60.84
71239;BME280;61342;51.442;7.370;2022-07-04T02:11:52;100419.88;;;17.68;60.78
71239;BME280;61342;51.442;7.370;2022-07-04T02:13:11;100422.22;;;17.69;61.21
71239;BME280;61342;51.442;7.370;2022-07-04T02:14:11;100423.78;;;17.70;60.76
71239;BME280;61342;51.442;7.370;2022-07-04T02:15:12;100415.47;;;17.74;61.14
71239;BME280;61342;51.442;7.370;2022-07-04T02:16:12;100426.16;;;17.79;61.18
71239;BME280;61342;51.442;7.370;2022-07-04T02:17:12;100412.38;;;17.80;60.75
71239;BME280;61342;51.442;7.370;2022-07-04T02:18:13;100417.06;;;17.83;60.85
71239;BME280;61342;51.442;7.370;2022-07-04T02:19:13;100412.78;;;17.84;60.56
71239;BME280;61342;51.442;7.370;2022-07-04T02:20:14;100405.44;;;17.83;60.55
71239;BME280;61342;51.442;7.370;2022-07-04T02:21:14;100413.75;;;17.86;60.95
71239;BME280;61342;51.442;7.370;2022-07-04T02:22:15;100417.25;;;17.85;61.10
71239;BME280;61342;51.442;7.370;2022-07-04T02:23:16;100414.34;;;17.85;60.90
71239;BME280;61342;51.442;7.370;2022-07-04T02:24:16;100422.06;;;17.82;60.98
71239;BME280;61342;51.442;7.370;2022-07-04T02:25:17;100415.50;;;17.82;60.69
71239;BME280;61342;51.442;7.370;2022-07-04T02:26:17;100423.81;;;17.78;60.68
71239;BME280;61342;51.442;7.370;2022-07-04T02:27:18;100419.94;;;17.75;61.10
71239;BME280;61342;51.442;7.370;2022-07-04T02:28:18;100422.63;;;17.73;61.12
71239;BME280;61342;51.442;7.370;2022-07-04T02:29:19;100422.44;;;17.71;60.94
71239;BME280;61342;51.442;7.370;2022-07-04T02:30:19;100423.78;;;17.70;61.09
71239;BME280;61342;51.442;7.370;2022-07-04T02:31:20;100410.75;;;17.64;61.60
71239;BME280;61342;51.442;7.370;2022-07-04T02:32:20;100419.88;;;17.60;61.24
71239;BME280;61342;51.442;7.370;2022-07-04T02:33:21;100413.25;;;17.60;61.66
71239;BME280;61342;51.442;7.370;2022-07-04T02:34:21;100413.44;;;17.54;61.54
71239;BME280;61342;51.442;7.370;2022-07-04T02:35:22;100420.59;;;17.53;61.58
71239;BME280;61342;51.442;7.370;2022-07-04T02:36:22;100418.63;;;17.48;61.67
71239;BME280;61342;51.442;7.370;2022-07-04T02:37:22;100423.91;;;17.50;62.33
71239;BME280;61342;51.442;7.370;2022-07-04T02:38:23;100414.75;;;17.46;62.23
71239;BME280;61342;51.442;7.370;2022-07-04T02:39:23;100418.06;;;17.50;62.29
71239;BME280;61342;51.442;7.370;2022-07-04T02:40:24;100425.06;;;17.54;62.17
71239;BME280;61342;51.442;7.370;2022-07-04T02:41:24;100422.78;;;17.60;62.19
71239;BME280;61342;51.442;7.370;2022-07-04T02:42:28;100431.69;;;17.62;62.10
71239;BME280;61342;51.442;7.370;2022-07-04T02:43:29;100425.91;;;17.70;61.58
71239;BME280;61342;51.442;7.370;2022-07-04T02:44:29;100429.81;;;17.72;61.96
71239;BME280;61342;51.442;7.370;2022-07-04T02:45:30;100443.19;;;17.75;61.84
71239;BME280;61342;51.442;7.370;2022-07-04T02:46:30;100436.03;;;17.76;61.80
71239;BME280;61342;51.442;7.370;2022-07-04T02:47:34;100432.31;;;17.76;61.36
71239;BME280;61342;51.442;7.370;2022-07-04T02:48:35;100430.22;;;17.76;61.32
71239;BME280;61342;51.442;7.370;2022-07-04T02:49:35;100439.13;;;17.78;61.77
71239;BME280;61342;51.442;7.370;2022-07-04T02:50:35;100435.25;;;17.76;61.62
71239;BME280;61342;51.442;7.370;2022-07-04T02:51:36;100436.59;;;17.75;61.64
71239;BME280;61342;51.442;7.370;2022-07-04T02:52:36;100447.25;;;17.72;62.02
71239;BME280;61342;51.442;7.370;2022-07-04T02:53:36;100444.91;;;17.71;62.17
71239;BME280;61342;51.442;7.370;2022-07-04T02:54:37;100445.06;;;17.65;61.67
71239;BME280;61342;51.442;7.370;2022-07-04T02:55:37;100446.44;;;17.64;61.95
71239;BME280;61342;51.442;7.370;2022-07-04T02:56:38;100454.97;;;17.62;62.18
71239;BME280;61342;51.442;7.370;2022-07-04T02:57:38;100448.72;;;17.58;62.23
71239;BME280;61342;51.442;7.370;2022-07-04T02:58:38;100446.41;;;17.57;62.11
71239;BME280;61342;51.442;7.370;2022-07-04T02:59:39;100445.00;;;17.50;62.48
71239;BME280;61342;51.442;7.370;2022-07-04T03:00:39;100447.16;;;17.50;62.78
71239;BME280;61342;51.442;7.370;2022-07-04T03:01:40;100449.06;;;17.47;62.63
71239;BME280;61342;51.442;7.370;2022-07-04T03:02:40;100436.25;;;17.43;62.73
71239;BME280;61342;51.442;7.370;2022-07-04T03:03:41;100441.28;;;17.42;63.04
71239;BME280;61342;51.442;7.370;2022-07-04T03:04:41;100445.19;;;17.45;63.37
71239;BME280;61342;51.442;7.370;2022-07-04T03:05:41;100438.56;;;17.44;63.15
71239;BME280;61342;51.442;7.370;2022-07-04T03:06:42;100442.47;;;17.47;63.13
71239;BME280;61342;51.442;7.370;2022-07-04T03:07:43;100444.03;;;17.48;63.65
71239;BME280;61342;51.442;7.370;2022-07-04T03:08:43;100445.19;;;17.52;63.15
71239;BME280;61342;51.442;7.370;2022-07-04T03:09:44;100454.72;;;17.53;63.19
71239;BME280;61342;51.442;7.370;2022-07-04T03:10:44;100444.66;;;17.54;63.21
71239;BME280;61342;51.442;7.370;2022-07-04T03:11:45;100465.78;;;17.54;63.46
71239;BME280;61342;51.442;7.370;2022-07-04T03:12:45;100451.81;;;17.53;63.44
71239;BME280;61342;51.442;7.370;2022-07-04T03:13:46;100461.09;;;17.51;63.66
71239;BME280;61342;51.442;7.370;2022-07-04T03:14:46;100449.06;;;17.47;63.40
71239;BME280;61342;51.442;7.370;2022-07-04T03:15:46;100455.25;;;17.44;63.56
71239;BME280;61342;51.442;7.370;2022-07-04T03:16:47;100466.88;;;17.44;63.46
71239;BME280;61342;51.442;7.370;2022-07-04T03:17:47;100458.31;;;17.38;63.81
71239;BME280;61342;51.442;7.370;2022-07-04T03:18:47;100470.50;;;17.37;63.74
71239;BME280;61342;51.442;7.370;2022-07-04T03:19:48;100470.69;;;17.32;64.10
71239;BME280;61342;51.442;7.370;2022-07-04T03:20:48;100471.59;;;17.27;63.85
71239;BME280;61342;51.442;7.370;2022-07-04T03:21:49;100471.38;;;17.25;64.06
71239;BME280;61342;51.442;7.370;2022-07-04T03:22:49;100470.38;;;17.22;64.04
71239;BME280;61342;51.442;7.370;2022-07-04T03:23:51;100476.00;;;17.20;64.01
71239;BME280;61342;51.442;7.370;2022-07-04T03:24:58;100481.38;;;17.16;64.68
71239;BME280;61342;51.442;7.370;2022-07-04T03:25:58;100469.91;;;17.11;64.96
71239;BME280;61342;51.442;7.370;2022-07-04T03:26:58;100478.41;;;17.09;64.67
71239;BME280;61342;51.442;7.370;2022-07-04T03:27:59;100477.41;;;17.06;64.97
71239;BME280;61342;51.442;7.370;2022-07-04T03:29:00;100473.75;;;17.06;64.96
71239;BME280;61342;51.442;7.370;2022-07-04T03:30:02;100478.00;;;17.05;65.49
71239;BME280;61342;51.442;7.370;2022-07-04T03:31:02;100483.81;;;17.05;65.71
71239;BME280;61342;51.442;7.370;2022-07-04T03:32:03;100478.00;;;17.05;65.39
71239;BME280;61342;51.442;7.370;2022-07-04T03:33:03;100482.47;;;17.06;65.43
71239;BME280;61342;51.442;7.370;2022-07-04T03:34:04;100472.03;;;17.10;65.75
71239;BME280;61342;51.442;7.370;2022-07-04T03:35:05;100477.25;;;17.12;65.39
71239;BME280;61342;51.442;7.370;2022-07-04T03:36:05;100471.69;;;17.14;65.48
71239;BME280;61342;51.442;7.370;2022-07-04T03:37:05;100475.91;;;17.13;65.40
71239;BME280;61342;51.442;7.370;2022-07-04T03:38:06;100474.81;;;17.16;65.81
71239;BME280;61342;51.442;7.370;2022-07-04T03:39:07;100477.72;;;17.16;65.72
71239;BME280;61342;51.442;7.370;2022-07-04T03:40:08;100477.72;;;17.16;65.62
71239;BME280;61342;51.442;7.370;2022-07-04T03:41:08;100481.16;;;17.14;65.68
71239;BME280;61342;51.442;7.370;2022-07-04T03:42:09;100478.63;;;17.11;66.00
71239;BME280;61342;51.442;7.370;2022-07-04T03:43:09;100483.88;;;17.12;65.63
71239;BME280;61342;51.442;7.370;2022-07-04T03:44:09;100473.75;;;17.06;65.66
71239;BME280;61342;51.442;7.370;2022-07-04T03:45:11;100488.47;;;17.08;66.18
71239;BME280;61342;51.442;7.370;2022-07-04T03:46:14;100488.84;;;17.04;66.23
71239;BME280;61342;51.442;7.370;2022-07-04T03:47:14;100490.97;;;17.04;66.07
71239;BME280;61342;51.442;7.370;2022-07-04T03:48:15;100494.25;;;17.00;66.21
71239;BME280;61342;51.442;7.370;2022-07-04T03:49:16;100493.81;;;16.96;66.03
71239;BME280;61342;51.442;7.370;2022-07-04T03:50:17;100496.31;;;16.92;66.30
71239;BME280;61342;51.442;7.370;2022-07-04T03:51:17;100487.75;;;16.87;66.19
71239;BME280;61342;51.442;7.370;2022-07-04T03:52:24;100494.66;;;16.84;66.26
71239;BME280;61342;51.442;7.370;2022-07-04T03:53:24;100494.66;;;16.84;66.42
71239;BME280;61342;51.442;7.370;2022-07-04T03:54:25;100492.91;;;16.81;66.79
71239;BME280;61342;51.442;7.370;2022-07-04T03:55:28;100491.50;;;16.74;66.82
71239;BME280;61342;51.442;7.370;2022-07-04T03:56:29;100494.97;;;16.73;67.21
71239;BME280;61342;51.442;7.370;2022-07-04T03:57:29;100497.88;;;16.73;66.91
71239;BME280;61342;51.442;7.370;2022-07-04T03:58:29;100499.22;;;16.72;66.99
71239;BME280;61342;51.442;7.370;2022-07-04T03:59:30;100500.56;;;16.71;67.33
71239;BME280;61342;51.442;7.370;2022-07-04T04:03:59;100506.00;;;16.74;66.89
71239;BME280;61342;51.442;7.370;2022-07-04T04:05:18;100503.91;;;16.75;67.00
71239;BME280;61342;51.442;7.370;2022-07-04T04:06:28;100495.72;;;16.73;67.03
71239;BME280;61342;51.442;7.370;2022-07-04T04:07:28;100500.78;;;16.73;67.18
71239;BME280;61342;51.442;7.370;2022-07-04T04:08:29;100498.63;;;16.73;67.51
71239;BME280;61342;51.442;7.370;2022-07-04T04:09:29;100496.53;;;16.74;67.35
71239;BME280;61342;51.442;7.370;2022-07-04T04:10:30;100496.53;;;16.74;67.73
71239;BME280;61342;51.442;7.370;2022-07-04T04:11:31;100500.78;;;16.73;67.71
71239;BME280;61342;51.442;7.370;2022-07-04T04:12:32;100502.91;;;16.73;68.22
71239;BME280;61342;51.442;7.370;2022-07-04T04:13:32;100507.91;;;16.72;67.78
71239;BME280;61342;51.442;7.370;2022-07-04T04:14:32;100503.47;;;16.71;67.94
71239;BME280;61342;51.442;7.370;2022-07-04T04:15:33;100504.59;;;16.68;68.22
71239;BME280;61342;51.442;7.370;2022-07-04T04:16:33;100503.03;;;16.67;68.04
71239;BME280;61342;51.442;7.370;2022-07-04T04:17:34;100512.31;;;16.66;68.54
71239;BME280;61342;51.442;7.370;2022-07-04T04:18:35;100504.72;;;16.63;68.10
71239;BME280;61342;51.442;7.370;2022-07-04T04:19:35;100507.44;;;16.61;68.47
71239;BME280;61342;51.442;7.370;2022-07-04T04:20:35;100502.97;;;16.60;68.49
71239;BME280;61342;51.442;7.370;2022-07-04T04:21:36;100509.34;;;16.58;68.66
71239;BME280;61342;51.442;7.370;2022-07-04T04:22:36;100520.72;;;16.56;68.57
71239;BME280;61342;51.442;7.370;2022-07-04T04:23:37;100507.56;;;16.55;68.53
71239;BME280;61342;51.442;7.370;2022-07-04T04:24:37;100513.34;;;16.55;68.82
71239;BME280;61342;51.442;7.370;2022-07-04T04:25:38;100513.59;;;16.57;69.26
71239;BME280;61342;51.442;7.370;2022-07-04T04:26:38;100517.47;;;16.60;68.79
71239;BME280;61342;51.442;7.370;2022-07-04T04:27:38;100515.78;;;16.64;69.01
71239;BME280;61342;51.442;7.370;2022-07-04T04:28:39;100503.03;;;16.67;68.83
71239;BME280;61342;51.442;7.370;2022-07-04T04:29:39;100520.53;;;16.74;69.06
71239;BME280;61342;51.442;7.370;2022-07-04T04:30:40;100515.94;;;16.79;69.25
71239;BME280;61342;51.442;7.370;2022-07-04T04:34:53;100515.94;;;16.79;68.39
71239;BME280;61342;51.442;7.370;2022-07-04T04:35:54;100514.38;;;16.78;68.88
71239;BME280;61342;51.442;7.370;2022-07-04T04:36:57;100508.91;;;16.74;68.64
71239;BME280;61342;51.442;7.370;2022-07-04T04:37:57;100515.09;;;16.71;68.86
71239;BME280;61342;51.442;7.370;2022-07-04T04:38:58;100519.34;;;16.70;68.99
71239;BME280;61342;51.442;7.370;2022-07-04T04:39:58;100525.13;;;16.70;69.01
71239;BME280;61342;51.442;7.370;2022-07-04T04:41:02;100525.13;;;16.70;69.15
71239;BME280;61342;51.442;7.370;2022-07-04T04:42:03;100522.00;;;16.68;69.16
71239;BME280;61342;51.442;7.370;2022-07-04T04:43:03;100523.56;;;16.69;69.56
71239;BME280;61342;51.442;7.370;2022-07-04T04:44:09;100525.47;;;16.67;69.77
71239;BME280;61342;51.442;7.370;2022-07-04T04:45:10;100526.25;;;16.67;69.17
71239;BME280;61342;51.442;7.370;2022-07-04T04:46:10;100525.81;;;16.63;69.61
71239;BME280;61342;51.442;7.370;2022-07-04T04:47:11;100515.78;;;16.64;69.43
71239;BME280;61342;51.442;7.370;2022-07-04T04:48:11;100516.34;;;16.63;69.84
71239;BME280;61342;51.442;7.370;2022-07-04T04:49:11;100528.19;;;16.65;69.66
71239;BME280;61342;51.442;7.370;2022-07-04T04:50:12;100521.59;;;16.64;69.92
71239;BME280;61342;51.442;7.370;2022-07-04T04:51:14;100517.09;;;16.63;69.86
71239;BME280;61342;51.442;7.370;2022-07-04T04:52:15;100516.19;;;16.68;70.10
71239;BME280;61342;51.442;7.370;2022-07-04T04:53:15;100518.53;;;16.70;70.06
71239;BME280;61342;51.442;7.370;2022-07-04T04:54:16;100514.16;;;16.76;69.85
71239;BME280;61342;51.442;7.370;2022-07-04T04:55:16;100519.03;;;16.81;69.56
71239;BME280;61342;51.442;7.370;2022-07-04T05:00:57;100509.75;;;16.82;68.95
71239;BME280;61342;51.442;7.370;2022-07-04T05:01:58;100508.19;;;16.81;69.31
71239;BME280;61342;51.442;7.370;2022-07-04T05:02:58;100510.13;;;16.79;69.51
71239;BME280;61342;51.442;7.370;2022-07-04T05:03:58;100505.44;;;16.76;69.61
71239;BME280;61342;51.442;7.370;2022-07-04T05:04:59;100501.97;;;16.77;69.40
71239;BME280;61342;51.442;7.370;2022-07-04T05:05:59;100509.91;;;16.77;69.85
71239;BME280;61342;51.442;7.370;2022-07-04T05:07:00;100504.31;;;16.79;69.63
71239;BME280;61342;51.442;7.370;2022-07-04T05:08:00;100508.56;;;16.78;69.68
71239;BME280;61342;51.442;7.370;2022-07-04T05:09:00;100505.66;;;16.78;69.90
71239;BME280;61342;51.442;7.370;2022-07-04T05:10:02;100505.09;;;16.79;69.77
71239;BME280;61342;51.442;7.370;2022-07-04T05:11:02;100501.41;;;16.79;70.13
71239;BME280;61342;51.442;7.370;2022-07-04T05:12:03;100510.31;;;16.81;70.20
71239;BME280;61342;51.442;7.370;2022-07-04T05:13:03;100505.84;;;16.80;70.09
71239;BME280;61342;51.442;7.370;2022-07-04T05:14:04;100503.75;;;16.80;69.91
71239;BME280;61342;51.442;7.370;2022-07-04T05:15:05;100508.75;;;16.80;69.97
71239;BME280;61342;51.442;7.370;2022-07-04T05:16:06;100507.22;;;16.79;70.09
71239;BME280;61342;51.442;7.370;2022-07-04T05:17:06;100510.91;;;16.79;70.59
71239;BME280;61342;51.442;7.370;2022-07-04T05:18:07;100509.00;;;16.82;70.34
71239;BME280;61342;51.442;7.370;2022-07-04T05:19:07;100515.00;;;16.84;70.38
71239;BME280;61342;51.442;7.370;2022-07-04T05:20:08;100508.28;;;16.89;70.75
71239;BME280;61342;51.442;7.370;2022-07-04T05:21:09;100516.84;;;16.94;70.86
71239;BME280;61342;51.442;7.370;2022-07-04T05:22:09;100508.19;;;17.02;70.36
71239;BME280;61342;51.442;7.370;2022-07-04T05:23:10;100513.84;;;17.07;70.51
71239;BME280;61342;51.442;7.370;2022-07-04T05:24:11;100519.72;;;17.15;70.54
71239;BME280;61342;51.442;7.370;2022-07-04T05:25:12;100519.34;;;17.18;70.12
71239;BME280;61342;51.442;7.370;2022-07-04T05:26:12;100513.44;;;17.24;70.17
71239;BME280;61342;51.442;7.370;2022-07-04T05:27:13;100517.53;;;17.28;69.97
71239;BME280;61342;51.442;7.370;2022-07-04T05:28:13;100524.34;;;17.31;69.67
71239;BME280;61342;51.442;7.370;2022-07-04T05:29:13;100526.09;;;17.33;69.82
71239;BME280;61342;51.442;7.370;2022-07-04T05:30:14;100529.75;;;17.34;69.77